sensor_id;sensor_type;location;lat;lon;timestamp;temperature;humidity
20162;DHT22;51382;53.180;15.414;2023-07-31T00:14:42;14.80;99.90
20162;DHT22;51382;53.180;15.414;2023-07-31T00:46:33;14.60;99.90
20162;DHT22;51382;53.180;15.414;2023-07-31T01:01:45;14.60;99.90
20162;DHT22;51382;53.180;15.414;2023-07-31T01:16:57;14.40;99.90
20162;DHT22;51382;53.180;15.414;2023-07-31T01:32:09;14.70;99.90
20162;DHT22;51382;53.180;15.414;2023-07-31T01:47:21;14.90;99.90
20162;DHT22;51382;53.180;15.414;2023-07-31T02:02:32;14.80;99.90
20162;DHT22;51382;53.180;15.414;2023-07-31T02:17:44;14.30;99.90
20162;DHT22;51382;53.180;15.414;2023-07-31T02:32:55;14.30;99.90
20162;DHT22;51382;53.180;15.414;2023-07-31T02:48:09;14.20;99.90
20162;DHT22;51382;53.180;15.414;2023-07-31T03:03:29;14.40;99.90
20162;DHT22;51382;53.180;15.414;2023-07-31T03:18:40;14.60;99.90
20162;DHT22;51382;53.180;15.414;2023-07-31T03:33:51;14.90;99.90
20162;DHT22;51382;53.180;15.414;2023-07-31T03:49:00;15.00;99.90
20162;DHT22;51382;53.180;15.414;2023-07-31T04:04:11;15.10;99.90
20162;DHT22;51382;53.180;15.414;2023-07-31T04:19:23;15.20;99.90
20162;DHT22;51382;53.180;15.414;2023-07-31T04:34:45;15.40;99.90
20162;DHT22;51382;53.180;15.414;2023-07-31T04:49:58;16.20;99.90
20162;DHT22;51382;53.180;15.414;2023-07-31T05:05:09;15.60;99.90
20162;DHT22;51382;53.180;15.414;2023-07-31T05:20:20;15.00;99.90
20162;DHT22;51382;53.180;15.414;2023-07-31T05:35:32;15.00;99.90
20162;DHT22;51382;53.180;15.414;2023-07-31T05:50:44;15.30;99.90
20162;DHT22;51382;53.180;15.414;2023-07-31T06:05:55;15.30;99.90
20162;DHT22;51382;53.180;15.414;2023-07-31T06:21:06;15.30;99.90
20162;DHT22;51382;53.180;15.414;2023-07-31T06:36:19;15.40;99.90
20162;DHT22;51382;53.180;15.414;2023-07-31T06:51:31;16.00;99.90
20162;DHT22;51382;53.180;15.414;2023-07-31T07:06:44;17.10;99.90
20162;DHT22;51382;53.180;15.414;2023-07-31T07:21:55;17.60;99.90
20162;DHT22;51382;53.180;15.414;2023-07-31T07:52:21;18.20;99.90
20162;DHT22;51382;53.180;15.414;2023-07-31T08:07:32;20.20;99.90
20162;DHT22;51382;53.180;15.414;2023-07-31T08:22:43;20.70;99.90
20162;DHT22;51382;53.180;15.414;2023-07-31T08:37:54;20.10;99.90
20162;DHT22;51382;53.180;15.414;2023-07-31T08:53:06;20.20;99.90
20162;DHT22;51382;53.180;15.414;2023-07-31T09:08:18;20.70;99.90
20162;DHT22;51382;53.180;15.414;2023-07-31T09:23:44;21.10;99.90
20162;DHT22;51382;53.180;15.414;2023-07-31T09:38:56;21.80;99.90
20162;DHT22;51382;53.180;15.414;2023-07-31T09:54:13;22.00;99.90
20162;DHT22;51382;53.180;15.414;2023-07-31T10:09:26;21.00;99.90
20162;DHT22;51382;53.180;15.414;2023-07-31T10:24:40;21.80;99.90
20162;DHT22;51382;53.180;15.414;2023-07-31T10:55:15;21.60;99.90
20162;DHT22;51382;53.180;15.414;2023-07-31T11:10:34;22.00;99.90
20162;DHT22;51382;53.180;15.414;2023-07-31T11:25:45;20.90;99.90
20162;DHT22;51382;53.180;15.414;2023-07-31T11:40:57;21.80;99.90
20162;DHT22;51382;53.180;15.414;2023-07-31T11:56:12;22.70;99.90
20162;DHT22;51382;53.180;15.414;2023-07-31T12:11:26;21.30;99.90
20162;DHT22;51382;53.180;15.414;2023-07-31T12:26:37;20.70;99.90
20162;DHT22;51382;53.180;15.414;2023-07-31T12:41:49;21.30;99.90
20162;DHT22;51382;53.180;15.414;2023-07-31T12:57:00;19.60;99.90
20162;DHT22;51382;53.180;15.414;2023-07-31T13:12:12;21.40;99.90
20162;DHT22;51382;53.180;15.414;2023-07-31T13:27:23;20.70;99.90
20162;DHT22;51382;53.180;15.414;2023-07-31T13:42:34;20.80;99.90
20162;DHT22;51382;53.180;15.414;2023-07-31T13:57:48;21.20;99.90
20162;DHT22;51382;53.180;15.414;2023-07-31T14:13:03;22.40;99.90
20162;DHT22;51382;53.180;15.414;2023-07-31T14:28:14;21.10;99.90
20162;DHT22;51382;53.180;15.414;2023-07-31T14:43:26;20.80;99.90
20162;DHT22;51382;53.180;15.414;2023-07-31T14:58:37;20.30;99.90
20162;DHT22;51382;53.180;15.414;2023-07-31T15:13:49;20.70;99.90
20162;DHT22;51382;53.180;15.414;2023-07-31T15:29:02;21.50;99.90
20162;DHT22;51382;53.180;15.414;2023-07-31T15:44:30;21.40;99.90
20162;DHT22;51382;53.180;15.414;2023-07-31T15:59:40;21.60;99.90
20162;DHT22;51382;53.180;15.414;2023-07-31T16:15:00;20.80;99.90
20162;DHT22;51382;53.180;15.414;2023-07-31T16:45:30;20.20;99.90
20162;DHT22;51382;53.180;15.414;2023-07-31T17:00:42;19.80;99.90
20162;DHT22;51382;53.180;15.414;2023-07-31T17:15:50;19.90;99.90
20162;DHT22;51382;53.180;15.414;2023-07-31T17:30:57;19.60;99.90
20162;DHT22;51382;53.180;15.414;2023-07-31T17:46:04;19.50;99.90
20162;DHT22;51382;53.180;15.414;2023-07-31T18:01:13;19.50;99.90
20162;DHT22;51382;53.180;15.414;2023-07-31T18:16:28;19.60;99.90
20162;DHT22;51382;53.180;15.414;2023-07-31T18:47:37;19.30;99.90
20162;DHT22;51382;53.180;15.414;2023-07-31T19:17:57;19.10;99.90
20162;DHT22;51382;53.180;15.414;2023-07-31T19:33:10;19.10;99.90
20162;DHT22;51382;53.180;15.414;2023-07-31T19:48:24;19.30;99.90
20162;DHT22;51382;53.180;15.414;2023-07-31T20:03:35;19.50;99.90
20162;DHT22;51382;53.180;15.414;2023-07-31T20:18:47;17.30;99.90
20162;DHT22;51382;53.180;15.414;2023-07-31T20:34:00;17.00;99.90
20162;DHT22;51382;53.180;15.414;2023-07-31T20:49:15;16.90;99.90
20162;DHT22;51382;53.180;15.414;2023-07-31T21:04:26;17.10;99.90
20162;DHT22;51382;53.180;15.414;2023-07-31T21:19:41;17.00;99.90
20162;DHT22;51382;53.180;15.414;2023-07-31T21:34:53;16.90;99.90
20162;DHT22;51382;53.180;15.414;2023-07-31T21:50:05;17.10;99.90
20162;DHT22;51382;53.180;15.414;2023-07-31T22:05:19;17.30;99.90
20162;DHT22;51382;53.180;15.414;2023-07-31T22:20:32;17.40;99.90
20162;DHT22;51382;53.180;15.414;2023-07-31T22:35:43;17.20;99.90
20162;DHT22;51382;53.180;15.414;2023-07-31T22:51:00;17.20;99.90
20162;DHT22;51382;53.180;15.414;2023-07-31T23:06:11;17.20;99.90
20162;DHT22;51382;53.180;15.414;2023-07-31T23:21:23;17.30;99.90
20162;DHT22;51382;53.180;15.414;2023-07-31T23:36:34;17.30;99.90
20162;DHT22;51382;53.180;15.414;2023-07-31T23:51:45;17.30;99.90
